Time;durP1;ratioP1;P1;durP2;ratioP2;P2;SDS_P1;SDS_P2;PMS_P1;PMS_P2;Temp;Humidity;BMP_temperature;BMP_pressure;BME280_temperature;BME280_humidity;BME280_pressure;Samples;Min_cycle;Max_cycle;Signal;HPM_P1;HPM_P2
2021/04/22 00:01:06;;;;;;;10.50;8.07;;;8.90;84.70;;;;;;5070407;28;20061;-57
2021/04/22 00:03:32;;;;;;;14.65;9.65;;;8.80;85.50;;;;;;5070558;28;20039;-60
2021/04/22 00:05:58;;;;;;;12.05;9.00;;;8.80;86.30;;;;;;5062681;28;20952;-64
2021/04/22 00:08:24;;;;;;;14.25;9.60;;;8.80;86.30;;;;;;5052897;28;20100;-63
2021/04/22 00:10:52;;;;;;;13.65;8.95;;;8.80;86.00;;;;;;5071406;28;20050;-60
2021/04/22 00:13:22;;;;;;;13.48;9.15;;;8.80;86.30;;;;;;5053985;28;20498;-61
2021/04/22 00:15:50;;;;;;;13.85;9.23;;;8.80;86.70;;;;;;5070807;28;20101;-59
2021/04/22 00:18:20;;;;;;;16.35;9.20;;;8.80;86.90;;;;;;5056171;28;20436;-60
2021/04/22 00:20:46;;;;;;;11.68;8.82;;;8.90;86.90;;;;;;5054899;28;20048;-60
2021/04/22 00:23:13;;;;;;;13.38;9.65;;;8.90;86.80;;;;;;5070753;28;20036;-59
2021/04/22 00:25:43;;;;;;;13.65;9.30;;;8.90;86.90;;;;;;5062053;28;20047;-61
2021/04/22 00:28:11;;;;;;;14.05;9.15;;;8.90;86.50;;;;;;5070902;28;20039;-60
2021/04/22 00:30:38;;;;;;;12.43;8.95;;;9.00;86.10;;;;;;5063335;28;20104;-60
2021/04/22 00:33:08;;;;;;;12.55;8.90;;;9.00;85.70;;;;;;5053818;28;20112;-66
2021/04/22 00:35:35;;;;;;;12.20;9.75;;;9.10;85.90;;;;;;5070164;28;20040;-61
2021/04/22 00:38:02;;;;;;;15.05;10.00;;;9.20;85.70;;;;;;5053647;28;20104;-59
2021/04/22 00:40:28;;;;;;;14.63;10.07;;;9.20;85.10;;;;;;5061246;28;20021;-61
2021/04/22 00:42:57;;;;;;;13.57;9.15;;;9.30;84.00;;;;;;5063711;28;20033;-60
2021/04/22 00:45:23;;;;;;;15.15;10.13;;;9.40;83.20;;;;;;5065435;28;20033;-65
2021/04/22 00:47:49;;;;;;;15.80;10.20;;;9.50;82.60;;;;;;5057225;28;20029;-61
2021/04/22 00:50:21;;;;;;;17.92;10.02;;;9.70;80.80;;;;;;5069763;28;20033;-61
2021/04/22 00:52:47;;;;;;;14.80;10.50;;;9.90;79.40;;;;;;5063725;28;20060;-60
2021/04/22 00:55:14;;;;;;;16.05;10.35;;;10.00;78.50;;;;;;5062675;28;20032;-61
2021/04/22 00:57:39;;;;;;;15.13;9.85;;;10.30;77.40;;;;;;5062525;28;20072;-60
2021/04/22 01:00:08;;;;;;;17.50;10.13;;;10.40;76.50;;;;;;5053964;28;20041;-59
2021/04/22 01:02:36;;;;;;;16.33;10.43;;;10.40;78.60;;;;;;5069268;28;20025;-62
2021/04/22 01:05:25;;;;;;;14.23;11.15;;;10.40;83.60;;;;;;5057137;28;20420;-56
2021/04/22 01:07:51;;;;;;;17.38;12.27;;;10.20;87.90;;;;;;5058602;28;20045;-61
2021/04/22 01:10:18;;;;;;;20.25;13.43;;;9.90;90.40;;;;;;5058449;28;20454;-61
2021/04/22 01:12:45;;;;;;;18.88;12.63;;;9.70;93.90;;;;;;5062231;28;20576;-60
2021/04/22 01:15:16;;;;;;;18.98;15.02;;;9.60;97.80;;;;;;5069068;28;20035;-63
2021/04/22 01:17:41;;;;;;;;;;;9.40;99.90;;;;;;5061757;28;20025;-61
2021/04/22 01:20:18;;;;;;;22.35;14.88;;;9.30;99.90;;;;;;5055748;28;20385;-62
2021/04/22 01:22:45;;;;;;;21.75;16.48;;;9.20;99.90;;;;;;5063151;28;20477;-62
2021/04/22 01:25:14;;;;;;;22.02;18.13;;;9.10;99.90;;;;;;5055196;28;20076;-61
2021/04/22 01:27:40;;;;;;;20.23;16.30;;;9.10;99.90;;;;;;5061053;28;20028;-62
2021/04/22 01:30:18;;;;;;;27.65;19.63;;;9.00;99.90;;;;;;5064865;28;20500;-63
2021/04/22 01:32:45;;;;;;;23.17;18.08;;;8.90;99.90;;;;;;5060759;28;20032;-55
2021/04/22 01:35:18;;;;;;;24.90;17.50;;;8.90;99.90;;;;;;5064064;28;20059;-60
2021/04/22 01:37:45;;;;;;;25.65;18.48;;;8.80;99.90;;;;;;5059491;28;20203;-60
2021/04/22 01:40:12;;;;;;;24.63;19.02;;;8.70;99.90;;;;;;5060288;28;20024;-61
2021/04/22 01:42:39;;;;;;;24.50;17.63;;;8.70;99.90;;;;;;5063437;28;20108;-63
2021/04/22 01:45:06;;;;;;;26.67;19.48;;;8.70;99.90;;;;;;5060607;28;20033;-62
2021/04/22 01:47:31;;;;;;;26.60;19.50;;;8.70;99.90;;;;;;5061213;28;20081;-59
2021/04/22 01:49:57;;;;;;;25.83;19.25;;;8.60;99.90;;;;;;5062769;28;20127;-61
2021/04/22 01:52:25;;;;;;;23.58;18.50;;;8.60;99.90;;;;;;5062381;28;20025;-65
2021/04/22 01:54:51;;;;;;;28.10;19.70;;;8.60;99.90;;;;;;5060254;28;20029;-55
2021/04/22 01:57:17;;;;;;;25.73;20.02;;;8.60;99.90;;;;;;5058032;28;20106;-60
2021/04/22 01:59:42;;;;;;;26.27;19.80;;;8.60;99.90;;;;;;5062432;28;20033;-61
2021/04/22 02:02:08;;;;;;;31.33;20.85;;;8.60;99.90;;;;;;5062775;28;20032;-62
2021/04/22 02:04:34;;;;;;;30.23;21.33;;;8.60;99.90;;;;;;5060770;28;20489;-57
2021/04/22 02:07:00;;;;;;;27.15;20.42;;;8.60;99.90;;;;;;5059904;28;20025;-63
2021/04/22 02:09:26;;;;;;;30.50;20.33;;;8.70;99.90;;;;;;5063286;28;20095;-66
2021/04/22 02:11:52;;;;;;;23.95;18.05;;;8.70;99.90;;;;;;5060403;28;20029;-62
2021/04/22 02:14:17;;;;;;;24.75;18.05;;;8.70;99.90;;;;;;5060983;28;20035;-63
2021/04/22 02:16:43;;;;;;;27.55;19.60;;;8.70;99.90;;;;;;5062018;28;20021;-62
2021/04/22 02:19:11;;;;;;;24.98;19.40;;;8.70;99.90;;;;;;5065158;28;20025;-65
2021/04/22 02:21:37;;;;;;;30.90;22.25;;;8.70;99.90;;;;;;5063183;28;20525;-60
2021/04/22 02:24:03;;;;;;;26.67;20.17;;;8.70;99.90;;;;;;5062722;28;20029;-62
2021/04/22 02:26:29;;;;;;;27.70;20.55;;;8.60;99.90;;;;;;5058905;28;20021;-63
2021/04/22 02:28:55;;;;;;;28.42;22.33;;;8.60;99.90;;;;;;5061366;28;20496;-62
2021/04/22 02:31:20;;;;;;;26.88;19.75;;;8.50;99.90;;;;;;5064190;28;20077;-63
2021/04/22 02:33:52;;;;;;;29.92;22.40;;;8.50;99.90;;;;;;5058696;28;20038;-64
2021/04/22 02:36:18;;;;;;;27.50;21.95;;;8.40;99.90;;;;;;5061051;28;20142;-62
2021/04/22 02:38:44;;;;;;;31.48;22.92;;;8.40;99.90;;;;;;5060473;28;20032;-62
2021/04/22 02:41:09;;;;;;;36.20;26.65;;;8.40;99.90;;;;;;5058652;28;20398;-61
2021/04/22 02:43:35;;;;;;;37.60;26.83;;;8.30;99.90;;;;;;5058475;28;20021;-60
2021/04/22 02:46:01;;;;;;;42.47;28.73;;;8.30;99.90;;;;;;5061235;28;20044;-62
2021/04/22 02:48:27;;;;;;;36.50;27.38;;;8.30;99.90;;;;;;5059601;28;20085;-63
2021/04/22 02:50:55;;;;;;;38.30;27.83;;;8.40;99.90;;;;;;5061046;28;20072;-61
2021/04/22 02:53:21;;;;;;;38.00;27.80;;;8.40;99.90;;;;;;5062386;28;20057;-61
2021/04/22 02:55:47;;;;;;;37.67;26.70;;;8.40;99.90;;;;;;5061194;28;20033;-61
2021/04/22 02:58:15;;;;;;;34.00;25.63;;;8.50;99.90;;;;;;5068800;28;20048;-60
2021/04/22 03:00:43;;;;;;;38.65;26.77;;;8.50;99.90;;;;;;5060798;28;20025;-62
2021/04/22 03:03:09;;;;;;;40.63;29.55;;;8.50;99.90;;;;;;5066578;28;20029;-61
2021/04/22 03:05:36;;;;;;;40.78;29.25;;;8.50;99.90;;;;;;5062869;28;20044;-56
2021/04/22 03:08:02;;;;;;;39.88;28.23;;;8.50;99.90;;;;;;5067984;28;20024;-61
2021/04/22 03:10:28;;;;;;;45.72;30.85;;;8.50;99.90;;;;;;5067559;28;20027;-59
2021/04/22 03:12:55;;;;;;;41.38;29.70;;;8.60;99.90;;;;;;5063928;28;20025;-62
2021/04/22 03:15:22;;;;;;;40.25;29.88;;;8.60;99.90;;;;;;5063488;28;20028;-61
2021/04/22 03:17:48;;;;;;;41.22;30.23;;;8.70;99.90;;;;;;5069880;28;20032;-64
2021/04/22 03:20:15;;;;;;;44.65;31.42;;;8.70;99.90;;;;;;5052687;28;20025;-53
2021/04/22 03:22:41;;;;;;;42.22;30.77;;;8.70;99.90;;;;;;5067220;28;20029;-61
2021/04/22 03:25:12;;;;;;;38.63;27.90;;;8.70;99.90;;;;;;5063711;28;20049;-61
2021/04/22 03:27:38;;;;;;;40.85;27.55;;;8.70;99.90;;;;;;5062571;28;20046;-61
2021/04/22 03:30:10;;;;;;;35.95;27.13;;;8.70;99.90;;;;;;5069892;28;20039;-60
2021/04/22 03:32:36;;;;;;;41.72;28.27;;;8.70;99.90;;;;;;5051613;28;20103;-61
2021/04/22 03:35:04;;;;;;;42.22;28.98;;;8.70;99.90;;;;;;5068217;28;20036;-61
2021/04/22 03:37:33;;;;;;;33.78;25.48;;;8.70;99.90;;;;;;5062407;28;20028;-62
2021/04/22 03:40:02;;;;;;;35.92;26.17;;;8.70;99.90;;;;;;5064820;28;20039;-61
2021/04/22 03:42:28;;;;;;;35.38;25.52;;;8.70;99.90;;;;;;5052126;28;20032;-65
2021/04/22 03:44:54;;;;;;;38.10;25.40;;;8.60;99.90;;;;;;5071325;28;20040;-61
2021/04/22 03:47:20;;;;;;;33.50;23.88;;;8.60;99.90;;;;;;5061320;28;20072;-61
2021/04/22 03:49:46;;;;;;;32.63;23.63;;;8.60;99.90;;;;;;5060374;28;20596;-61
2021/04/22 03:52:11;;;;;;;33.05;23.92;;;8.70;99.90;;;;;;5070270;28;20035;-61
2021/04/22 03:54:37;;;;;;;30.42;23.08;;;8.70;99.90;;;;;;5068503;28;20548;-62
2021/04/22 03:57:04;;;;;;;30.98;22.52;;;8.70;99.90;;;;;;5069302;28;20358;-62
2021/04/22 03:59:30;;;;;;;32.25;23.35;;;8.70;99.90;;;;;;5060802;28;20090;-62
2021/04/22 04:01:56;;;;;;;35.67;22.77;;;8.60;99.90;;;;;;5059548;28;20083;-62
2021/04/22 04:04:22;;;;;;;34.17;23.05;;;8.60;99.90;;;;;;5066865;28;20041;-61
2021/04/22 04:06:48;;;;;;;33.85;22.10;;;8.50;99.90;;;;;;5069299;28;20089;-61
2021/04/22 04:09:14;;;;;;;30.55;21.35;;;8.50;99.90;;;;;;5064253;28;20056;-61
2021/04/22 04:11:40;;;;;;;35.20;21.95;;;8.40;99.90;;;;;;5062271;28;20494;-61
2021/04/22 04:14:09;;;;;;;29.33;22.33;;;8.40;99.90;;;;;;5068104;28;20028;-62
2021/04/22 04:16:34;;;;;;;31.65;21.42;;;8.40;99.90;;;;;;5051385;28;20033;-63
2021/04/22 04:19:00;;;;;;;29.83;20.98;;;8.40;99.90;;;;;;5069424;28;20025;-61
2021/04/22 04:21:32;;;;;;;30.05;21.88;;;8.40;99.90;;;;;;5071558;28;20397;-65
2021/04/22 04:23:58;;;;;;;31.25;23.33;;;8.30;99.90;;;;;;5062659;28;20104;-61
2021/04/22 04:26:24;;;;;;;33.13;24.45;;;8.20;99.90;;;;;;5070790;28;20108;-61
2021/04/22 04:28:50;;;;;;;36.40;22.85;;;8.10;99.90;;;;;;5052626;28;20028;-61
2021/04/22 04:31:17;;;;;;;32.83;23.75;;;8.10;99.90;;;;;;5052030;28;20451;-61
2021/04/22 04:33:42;;;;;;;35.50;23.42;;;8.00;99.90;;;;;;5051520;28;20029;-61
2021/04/22 04:36:11;;;;;;;33.92;23.73;;;8.00;99.90;;;;;;5064808;28;20046;-61
2021/04/22 04:38:37;;;;;;;31.48;22.10;;;7.90;99.90;;;;;;5058263;28;20068;-61
2021/04/22 04:41:09;;;;;;;37.63;23.60;;;8.00;99.90;;;;;;5059558;28;20048;-61
2021/04/22 04:43:35;;;;;;;34.17;23.75;;;7.90;99.90;;;;;;5060543;28;20024;-60
2021/04/22 04:46:01;;;;;;;37.03;23.35;;;7.90;99.90;;;;;;5059155;28;20064;-61
2021/04/22 04:48:27;;;;;;;31.83;22.17;;;7.90;99.90;;;;;;5058440;28;20082;-66
2021/04/22 04:50:52;;;;;;;33.67;24.35;;;7.90;99.90;;;;;;5056802;28;20036;-59
2021/04/22 04:53:18;;;;;;;35.30;23.50;;;7.90;99.90;;;;;;5058750;28;20028;-63
2021/04/22 04:55:44;;;;;;;34.28;23.40;;;7.80;99.90;;;;;;5060006;28;20142;-61
2021/04/22 04:58:10;;;;;;;37.05;23.52;;;7.80;99.90;;;;;;5064242;28;20052;-54
2021/04/22 05:00:35;;;;;;;37.65;24.52;;;7.80;99.90;;;;;;5063963;28;20036;-61
2021/04/22 05:03:01;;;;;;;34.28;24.75;;;7.80;99.90;;;;;;5068724;28;20057;-61
2021/04/22 05:05:28;;;;;;;37.97;24.90;;;7.90;99.90;;;;;;5070305;28;20049;-65
2021/04/22 05:07:54;;;;;;;37.95;24.23;;;7.90;99.90;;;;;;5054581;28;20056;-61
2021/04/22 05:10:29;;;;;;;33.10;22.98;;;8.00;99.90;;;;;;5060690;28;20056;-60
2021/04/22 05:12:55;;;;;;;32.80;23.00;;;8.00;99.90;;;;;;5071842;28;20047;-61
2021/04/22 05:15:20;;;;;;;30.10;20.23;;;8.00;99.90;;;;;;5074355;28;20029;-62
2021/04/22 05:17:46;;;;;;;31.98;23.38;;;8.00;99.90;;;;;;5058207;28;20119;-62
2021/04/22 05:20:16;;;;;;;36.85;24.48;;;8.10;99.90;;;;;;5072611;28;20449;-61
2021/04/22 05:22:41;;;;;;;36.00;23.73;;;8.20;99.90;;;;;;5065391;28;20377;-62
2021/04/22 05:25:11;;;;;;;36.70;22.90;;;8.20;99.90;;;;;;5055544;28;20041;-62
2021/04/22 05:27:37;;;;;;;33.23;23.60;;;8.30;99.90;;;;;;5062276;28;20032;-61
2021/04/22 05:30:05;;;;;;;33.75;22.77;;;8.30;99.90;;;;;;5063217;28;20033;-63
2021/04/22 05:32:31;;;;;;;33.15;20.98;;;8.50;99.00;;;;;;5054616;28;20377;-65
2021/04/22 05:34:57;;;;;;;31.60;20.58;;;8.50;99.20;;;;;;5064753;28;20033;-62
2021/04/22 05:37:23;;;;;;;29.73;21.52;;;8.60;98.00;;;;;;5067807;28;20029;-64
2021/04/22 05:39:48;;;;;;;32.97;22.75;;;8.70;97.70;;;;;;5053926;28;20025;-64
2021/04/22 05:42:14;;;;;;;32.45;22.02;;;8.70;97.60;;;;;;5073456;28;20033;-61
2021/04/22 05:44:41;;;;;;;27.67;20.50;;;8.70;97.40;;;;;;5057319;28;20033;-63
2021/04/22 05:47:07;;;;;;;28.30;21.13;;;8.80;97.00;;;;;;5062688;28;20035;-63
2021/04/22 05:49:33;;;;;;;26.73;20.67;;;8.90;96.40;;;;;;5053555;28;20041;-66
2021/04/22 05:51:59;;;;;;;31.20;21.85;;;8.90;96.20;;;;;;5054805;28;20029;-62
2021/04/22 05:54:25;;;;;;;30.88;21.75;;;9.00;94.40;;;;;;5063328;28;20090;-63
2021/04/22 05:56:50;;;;;;;31.55;21.00;;;9.10;94.30;;;;;;5067954;28;20024;-63
2021/04/22 05:59:16;;;;;;;32.70;22.08;;;9.10;93.40;;;;;;5054484;28;20429;-65
2021/04/22 06:01:42;;;;;;;27.60;19.63;;;9.20;93.20;;;;;;5071366;28;20032;-59
2021/04/22 06:04:08;;;;;;;32.80;21.02;;;9.30;92.20;;;;;;5060459;28;20055;-64
2021/04/22 06:06:34;;;;;;;35.88;20.67;;;9.30;91.90;;;;;;5045898;28;20670;-66
2021/04/22 06:08:59;;;;;;;37.05;21.65;;;9.30;92.10;;;;;;5055552;28;20075;-64
2021/04/22 06:11:25;;;;;;;30.63;20.98;;;9.20;92.50;;;;;;5071672;28;20024;-63
2021/04/22 06:14:00;;;;;;;30.42;22.00;;;9.10;93.00;;;;;;5054210;28;20064;-63
2021/04/22 06:16:29;;;;;;;35.38;21.83;;;9.10;93.00;;;;;;5053641;28;20028;-63
2021/04/22 06:18:55;;;;;;;34.28;22.10;;;9.10;92.90;;;;;;5061438;28;20032;-63
2021/04/22 06:21:21;;;;;;;31.30;22.73;;;9.10;93.60;;;;;;5053573;28;20070;-63
2021/04/22 06:23:47;;;;;;;30.42;21.27;;;9.10;93.40;;;;;;5052316;28;20035;-63
2021/04/22 06:26:12;;;;;;;32.65;21.73;;;9.10;94.30;;;;;;5068586;28;20044;-63
2021/04/22 06:28:38;;;;;;;34.63;21.95;;;9.30;92.70;;;;;;5060105;28;20115;-63
2021/04/22 06:31:04;;;;;;;32.70;22.35;;;9.30;92.60;;;;;;5060432;28;20522;-64
2021/04/22 06:33:30;;;;;;;31.88;21.30;;;9.30;92.90;;;;;;5063225;28;20021;-66
2021/04/22 06:35:56;;;;;;;35.55;20.45;;;9.20;92.90;;;;;;5068821;28;20068;-63
2021/04/22 06:38:21;;;;;;;35.22;20.90;;;9.20;92.20;;;;;;5069168;28;20035;-64
2021/04/22 06:40:50;;;;;;;31.92;21.15;;;9.30;92.50;;;;;;5054219;28;20029;-63
2021/04/22 06:43:16;;;;;;;32.28;20.33;;;9.30;92.20;;;;;;5053955;28;20471;-63
2021/04/22 06:45:43;;;;;;;32.70;20.17;;;9.30;91.90;;;;;;5062657;28;20044;-64
2021/04/22 06:48:11;;;;;;;30.55;19.05;;;9.30;92.80;;;;;;5059519;28;20036;-63
2021/04/22 06:50:37;;;;;;;31.38;19.58;;;9.50;91.70;;;;;;5058773;28;20093;-63
2021/04/22 06:53:04;;;;;;;33.65;20.10;;;9.60;90.10;;;;;;5053072;28;20108;-63
2021/04/22 06:55:38;;;;;;;32.03;20.58;;;9.60;89.30;;;;;;5056792;28;20063;-67
2021/04/22 06:58:35;;;;;;;34.30;19.98;;;9.60;88.80;;;;;;5054955;28;20057;-63
2021/04/22 07:01:01;;;;;;;26.40;18.52;;;9.60;90.10;;;;;;5050647;28;20436;-61
2021/04/22 07:03:27;;;;;;;31.30;18.10;;;9.60;90.60;;;;;;5070190;28;20036;-63
2021/04/22 07:05:52;;;;;;;31.27;18.27;;;9.70;89.30;;;;;;5068649;28;20032;-67
2021/04/22 07:08:21;;;;;;;32.17;18.40;;;9.80;87.50;;;;;;5061028;28;20143;-63
2021/04/22 07:10:48;;;;;;;28.70;17.60;;;9.90;87.10;;;;;;5051631;28;20040;-64
2021/04/22 07:13:13;;;;;;;29.88;18.10;;;10.00;87.00;;;;;;5052956;28;20029;-64
2021/04/22 07:15:39;;;;;;;29.13;18.08;;;10.10;84.00;;;;;;5068222;28;20031;-63
2021/04/22 07:18:06;;;;;;;27.65;18.08;;;10.20;82.50;;;;;;5061232;28;20020;-64
2021/04/22 07:20:32;;;;;;;30.10;18.48;;;10.20;82.20;;;;;;5056912;28;20094;-65
2021/04/22 07:22:59;;;;;;;28.25;17.98;;;10.10;82.30;;;;;;5071128;28;20105;-63
2021/04/22 07:25:27;;;;;;;28.45;17.55;;;10.10;83.50;;;;;;5066917;28;20526;-62
2021/04/22 07:27:53;;;;;;;24.25;16.52;;;10.10;82.10;;;;;;5067299;28;20028;-62
2021/04/22 07:30:21;;;;;;;27.27;17.35;;;10.10;82.30;;;;;;5070349;28;20036;-61
2021/04/22 07:32:47;;;;;;;30.42;17.58;;;10.30;82.10;;;;;;5062254;28;20111;-60
2021/04/22 07:35:15;;;;;;;26.88;16.77;;;10.40;80.50;;;;;;5054327;28;20558;-62
2021/04/22 07:37:41;;;;;;;30.67;17.70;;;10.40;80.10;;;;;;5054154;28;20445;-61
2021/04/22 07:40:09;;;;;;;25.90;16.98;;;10.40;80.90;;;;;;5060057;28;20095;-62
2021/04/22 07:42:35;;;;;;;25.95;16.55;;;10.60;79.40;;;;;;5069181;28;20543;-62
2021/04/22 07:45:03;;;;;;;24.63;16.00;;;10.60;79.20;;;;;;5053180;28;20037;-60
2021/04/22 07:47:29;;;;;;;28.30;16.63;;;10.70;76.90;;;;;;5054131;28;20116;-62
2021/04/22 07:49:54;;;;;;;34.40;16.70;;;10.60;77.30;;;;;;5054433;28;20521;-62
2021/04/22 07:52:21;;;;;;;26.35;16.13;;;10.60;77.70;;;;;;5071261;28;20028;-61
2021/04/22 07:54:47;;;;;;;23.40;15.10;;;10.50;79.20;;;;;;5069479;28;20115;-61
2021/04/22 07:57:13;;;;;;;21.65;15.45;;;10.50;77.30;;;;;;5053983;28;20531;-60
2021/04/22 07:59:38;;;;;;;24.15;14.07;;;10.50;78.30;;;;;;5059530;28;20016;-62
2021/04/22 08:02:07;;;;;;;23.42;14.63;;;10.50;77.50;;;;;;5054970;28;20029;-62
2021/04/22 08:04:34;;;;;;;22.40;14.55;;;10.50;77.80;;;;;;5051552;28;20040;-65
2021/04/22 08:07:00;;;;;;;22.80;14.48;;;10.60;76.20;;;;;;5053340;28;20155;-62
2021/04/22 08:09:26;;;;;;;22.30;14.80;;;10.70;77.00;;;;;;5061844;28;20634;-62
2021/04/22 08:11:52;;;;;;;24.13;14.18;;;10.80;76.60;;;;;;5057254;28;20033;-62
2021/04/22 08:14:17;;;;;;;29.73;15.40;;;11.00;75.40;;;;;;5059744;28;20039;-60
2021/04/22 08:16:43;;;;;;;24.10;15.38;;;11.00;74.40;;;;;;5062195;28;20091;-62
2021/04/22 08:19:09;;;;;;;22.30;14.60;;;11.10;74.40;;;;;;5067713;28;20029;-62
2021/04/22 08:21:34;;;;;;;24.48;14.13;;;11.10;73.80;;;;;;5052623;28;20104;-64
2021/04/22 08:24:00;;;;;;;25.63;14.20;;;11.20;73.20;;;;;;5070165;28;20025;-63
2021/04/22 08:26:26;;;;;;;25.88;14.95;;;11.30;73.70;;;;;;5069614;28;20120;-62
2021/04/22 08:28:52;;;;;;;21.13;14.75;;;11.50;72.30;;;;;;5062143;28;20509;-63
2021/04/22 08:31:25;;;;;;;25.58;14.98;;;11.50;71.90;;;;;;5059675;28;20079;-63
2021/04/22 08:33:58;;;;;;;22.45;13.32;;;11.40;70.80;;;;;;5066879;28;20016;-63
2021/04/22 08:36:25;;;;;;;25.65;15.57;;;11.30;70.50;;;;;;5069250;28;20465;-62
2021/04/22 08:38:51;;;;;;;26.15;13.65;;;11.10;71.70;;;;;;5064106;28;20028;-63
2021/04/22 08:41:18;;;;;;;24.67;13.70;;;11.10;71.30;;;;;;5063200;28;20028;-62
2021/04/22 08:43:44;;;;;;;23.27;12.40;;;11.20;72.10;;;;;;5052654;28;20080;-64
2021/04/22 08:46:10;;;;;;;23.90;12.35;;;11.30;70.80;;;;;;5066241;28;20045;-63
2021/04/22 08:48:37;;;;;;;23.63;11.85;;;11.40;69.00;;;;;;5058276;28;20078;-66
2021/04/22 08:51:05;;;;;;;20.88;11.32;;;11.50;70.70;;;;;;5058774;28;20488;-63
2021/04/22 08:53:38;;;;;;;24.80;11.50;;;11.50;69.50;;;;;;5051196;28;20039;-62
2021/04/22 08:56:04;;;;;;;22.15;12.30;;;11.50;69.10;;;;;;5059310;28;20021;-61
2021/04/22 08:58:30;;;;;;;24.52;11.48;;;11.70;68.90;;;;;;5058920;28;20047;-62
2021/04/22 09:01:08;;;;;;;20.70;12.15;;;11.90;66.90;;;;;;5060920;28;20111;-63
2021/04/22 09:03:34;;;;;;;23.92;11.38;;;11.90;66.40;;;;;;5052516;28;20486;-63
2021/04/22 09:06:00;;;;;;;21.10;11.68;;;11.90;66.20;;;;;;5054103;28;20055;-61
2021/04/22 09:08:37;;;;;;;21.98;11.52;;;11.90;66.40;;;;;;5060012;28;20036;-63
2021/04/22 09:11:04;;;;;;;19.35;12.35;;;11.80;65.10;;;;;;5050926;28;20040;-62
2021/04/22 09:13:31;;;;;;;21.73;11.38;;;11.80;65.70;;;;;;5052005;28;20428;-61
2021/04/22 09:16:22;;;;;;;20.98;11.48;;;11.70;66.40;;;;;;5055283;28;20134;-63
2021/04/22 09:18:53;;;;;;;21.38;11.73;;;11.80;66.20;;;;;;5051377;28;20067;-63
2021/04/22 09:21:26;;;;;;;25.25;12.55;;;12.10;65.30;;;;;;5053185;28;20024;-62
2021/04/22 09:23:56;;;;;;;21.83;12.60;;;12.30;64.90;;;;;;5060258;28;20028;-62
2021/04/22 09:26:22;;;;;;;23.17;12.13;;;12.40;63.60;;;;;;5061578;28;20055;-61
2021/04/22 09:28:48;;;;;;;20.13;11.20;;;12.30;63.30;;;;;;5057195;28;20033;-60
2021/04/22 09:31:26;;;;;;;21.45;11.65;;;12.30;64.50;;;;;;5062184;28;20036;-60
2021/04/22 09:34:02;;;;;;;17.70;11.40;;;12.20;63.60;;;;;;5066967;28;20029;-61
2021/04/22 09:36:43;;;;;;;17.85;9.18;;;12.30;63.90;;;;;;5055676;28;20024;-62
2021/04/22 09:39:09;;;;;;;21.33;10.00;;;12.50;62.60;;;;;;5070087;28;20036;-63
2021/04/22 09:41:35;;;;;;;20.38;10.50;;;12.60;63.00;;;;;;5056411;28;20032;-63
2021/04/22 09:44:08;;;;;;;19.98;10.13;;;12.70;62.10;;;;;;5061558;28;20108;-63
2021/04/22 09:46:34;;;;;;;21.88;9.57;;;12.70;62.40;;;;;;5064626;28;20086;-64
2021/04/22 09:49:08;;;;;;;18.70;9.27;;;12.80;62.00;;;;;;5061694;28;20089;-63
2021/04/22 09:51:34;;;;;;;13.18;8.50;;;12.80;61.00;;;;;;5053925;28;20466;-63
2021/04/22 09:54:15;;;;;;;23.55;9.82;;;12.80;60.70;;;;;;5071807;28;20028;-62
2021/04/22 09:56:47;;;;;;;25.88;9.00;;;12.90;60.60;;;;;;5069487;28;20072;-63
2021/04/22 09:59:18;;;;;;;16.95;7.90;;;13.20;60.10;;;;;;5073329;28;20055;-63
2021/04/22 10:01:58;;;;;;;16.55;7.18;;;13.10;57.40;;;;;;5066329;28;20031;-63
2021/04/22 10:04:35;;;;;;;17.92;7.72;;;13.00;57.40;;;;;;5073140;28;20136;-63
2021/04/22 10:07:01;;;;;;;15.00;7.32;;;13.10;58.10;;;;;;5071248;28;20024;-63
2021/04/22 10:09:33;;;;;;;14.05;7.50;;;13.00;57.80;;;;;;5062565;28;20389;-65
2021/04/22 10:11:59;;;;;;;16.02;7.00;;;13.20;57.40;;;;;;5053793;28;20107;-62
2021/04/22 10:14:32;;;;;;;14.02;6.90;;;13.20;55.20;;;;;;5053513;28;20104;-63
2021/04/22 10:16:59;;;;;;;13.80;6.93;;;13.00;55.80;;;;;;5052944;28;20036;-61
2021/04/22 10:19:25;;;;;;;12.13;7.00;;;13.20;55.50;;;;;;5065519;28;20032;-62
2021/04/22 10:21:50;;;;;;;15.77;6.63;;;13.30;53.00;;;;;;5064549;28;20386;-63
2021/04/22 10:24:17;;;;;;;13.38;6.57;;;13.30;51.70;;;;;;5055341;28;20108;-62
2021/04/22 10:26:44;;;;;;;11.70;6.75;;;13.20;51.20;;;;;;5063633;28;20401;-64
2021/04/22 10:29:11;;;;;;;13.65;6.18;;;13.20;51.20;;;;;;5053265;28;20483;-64
2021/04/22 10:31:38;;;;;;;12.70;6.68;;;13.20;51.40;;;;;;5060254;28;20040;-63
2021/04/22 10:34:08;;;;;;;14.32;5.80;;;13.30;49.70;;;;;;5066007;28;20108;-63
2021/04/22 10:36:36;;;;;;;13.87;5.10;;;13.60;51.10;;;;;;5067548;28;20094;-63
2021/04/22 10:39:03;;;;;;;14.43;5.50;;;13.90;48.50;;;;;;5067228;28;20279;-63
2021/04/22 10:41:34;;;;;;;11.63;5.70;;;14.10;47.70;;;;;;5068341;28;20474;-63
2021/04/22 10:44:00;;;;;;;12.93;5.25;;;14.00;48.30;;;;;;5061321;28;20098;-63
2021/04/22 10:46:28;;;;;;;12.82;5.72;;;14.10;47.30;;;;;;5064064;28;20032;-65
2021/04/22 10:48:53;;;;;;;8.98;4.63;;;14.20;45.90;;;;;;5055146;28;20044;-63
2021/04/22 10:51:20;;;;;;;12.40;4.15;;;14.20;45.20;;;;;;5052994;28;20029;-64
2021/04/22 10:53:46;;;;;;;8.88;4.20;;;14.30;44.50;;;;;;5068422;28;20068;-63
2021/04/22 10:56:11;;;;;;;8.32;3.97;;;14.20;42.20;;;;;;5057823;28;20126;-63
2021/04/22 10:58:40;;;;;;;8.52;3.70;;;14.20;42.20;;;;;;5060227;28;20113;-63
2021/04/22 11:01:14;;;;;;;10.73;4.20;;;14.20;42.90;;;;;;5068222;28;20389;-62
2021/04/22 11:03:46;;;;;;;9.52;3.83;;;14.30;42.40;;;;;;5052547;28;20472;-66
2021/04/22 11:06:21;;;;;;;9.98;3.47;;;14.50;41.50;;;;;;5070007;28;20402;-62
2021/04/22 11:08:50;;;;;;;10.00;3.97;;;14.30;39.80;;;;;;5056350;28;20028;-63
2021/04/22 11:11:24;;;;;;;8.00;4.43;;;14.20;40.50;;;;;;5062076;28;20044;-65
2021/04/22 11:14:06;;;;;;;10.15;3.35;;;14.20;40.50;;;;;;5065405;28;20043;-62
2021/04/22 11:16:40;;;;;;;6.57;3.53;;;14.20;40.00;;;;;;5064030;28;20042;-62
2021/04/22 11:19:21;;;;;;;6.82;3.35;;;14.40;37.20;;;;;;5056937;28;20029;-63
2021/04/22 11:22:22;;;;;;;7.05;3.55;;;14.50;36.70;;;;;;5054014;28;20039;-64
2021/04/22 11:24:54;;;;;;;4.75;2.60;;;14.50;37.50;;;;;;5053061;28;20563;-60
2021/04/22 11:27:23;;;;;;;6.15;2.85;;;14.60;37.60;;;;;;5056925;28;20035;-63
2021/04/22 11:30:01;;;;;;;5.70;3.10;;;14.80;37.30;;;;;;5051813;28;20099;-63
2021/04/22 11:32:39;;;;;;;6.03;3.22;;;14.90;36.60;;;;;;5060318;28;20493;-62
2021/04/22 11:35:05;;;;;;;6.32;2.50;;;15.00;36.00;;;;;;5062073;28;20032;-64
2021/04/22 11:37:41;;;;;;;6.85;2.70;;;15.20;35.60;;;;;;5052286;28;20028;-64
2021/04/22 11:40:17;;;;;;;7.07;3.55;;;15.20;34.80;;;;;;5067647;28;20081;-63
2021/04/22 11:42:45;;;;;;;9.75;4.05;;;15.20;36.40;;;;;;5056794;28;20025;-66
2021/04/22 11:45:15;;;;;;;5.80;2.90;;;15.10;36.60;;;;;;5060647;28;20037;-63
2021/04/22 11:48:00;;;;;;;6.18;2.92;;;15.20;37.50;;;;;;5059681;28;20025;-66
2021/04/22 11:50:29;;;;;;;8.48;3.78;;;15.60;36.30;;;;;;5055635;28;20037;-64
2021/04/22 11:52:59;;;;;;;11.50;3.47;;;15.90;36.40;;;;;;5055373;28;20086;-61
2021/04/22 11:55:50;;;;;;;9.18;3.85;;;16.30;36.10;;;;;;5051675;28;20040;-62
2021/04/22 11:58:18;;;;;;;9.32;3.22;;;16.40;35.10;;;;;;5045623;28;20594;-60
2021/04/22 12:00:48;;;;;;;5.40;2.50;;;16.50;34.10;;;;;;5068714;28;20111;-66
2021/04/22 12:03:30;;;;;;;6.95;2.75;;;16.50;33.60;;;;;;5071003;28;20032;-59
2021/04/22 12:05:58;;;;;;;6.97;2.92;;;16.60;33.90;;;;;;5066150;28;20045;-63
2021/04/22 12:08:33;;;;;;;6.25;3.13;;;16.70;34.40;;;;;;5069595;28;20044;-61
2021/04/22 12:11:01;;;;;;;6.78;2.92;;;16.90;34.10;;;;;;5069084;28;20032;-62
2021/04/22 12:13:27;;;;;;;5.47;2.92;;;17.10;33.90;;;;;;5053609;28;20494;-73
2021/04/22 12:15:58;;;;;;;8.75;3.10;;;17.30;31.90;;;;;;5058131;28;20142;-65
2021/04/22 12:18:33;;;;;;;6.15;3.20;;;17.20;32.60;;;;;;5063219;28;20086;-63
2021/04/22 12:21:12;;;;;;;10.02;3.70;;;17.10;33.60;;;;;;5068964;28;20033;-64
2021/04/22 12:23:43;;;;;;;7.18;3.67;;;17.30;32.90;;;;;;5051974;28;20021;-64
2021/04/22 12:26:25;;;;;;;6.68;3.33;;;17.40;34.30;;;;;;5066927;28;20478;-65
2021/04/22 12:29:00;;;;;;;7.13;3.13;;;17.50;33.30;;;;;;5056986;28;20100;-65
2021/04/22 12:31:57;;;;;;;7.07;3.60;;;17.60;32.00;;;;;;5066887;28;20021;-63
2021/04/22 12:34:33;;;;;;;9.18;4.03;;;17.60;33.50;;;;;;5067625;28;20032;-65
2021/04/22 12:37:05;;;;;;;8.50;3.10;;;17.80;34.00;;;;;;5066516;28;20132;-65
2021/04/22 12:39:37;;;;;;;7.53;3.60;;;18.00;34.00;;;;;;5062365;28;20033;-65
2021/04/22 12:42:09;;;;;;;8.75;3.75;;;18.30;33.50;;;;;;5051765;28;20024;-64